Time;durP1;ratioP1;P1;durP2;ratioP2;P2;SDS_P1;SDS_P2;PMS_P1;PMS_P2;Temp;Humidity;BMP_temperature;BMP_pressure;BME280_temperature;BME280_humidity;BME280_pressure;Samples;Min_cycle;Max_cycle;Signal;HPM_P1;HPM_P2
2021/03/15 00:00:34;;;;;;;10.57;3.45;;;16.60;99.90;;;;;;5053686;28;20021;-76
2021/03/15 00:03:00;;;;;;;11.98;3.33;;;16.60;99.90;;;;;;5053443;28;20029;-75
2021/03/15 00:05:25;;;;;;;10.63;3.20;;;16.60;99.90;;;;;;5053023;28;20052;-73
2021/03/15 00:07:51;;;;;;;11.50;3.45;;;16.60;99.90;;;;;;5054267;28;20472;-75
2021/03/15 00:10:17;;;;;;;14.98;3.78;;;16.60;99.90;;;;;;5053448;28;20029;-73
2021/03/15 00:12:42;;;;;;;8.70;3.28;;;16.50;99.90;;;;;;5053683;28;20423;-75
2021/03/15 00:15:17;;;;;;;10.15;3.30;;;16.50;99.90;;;;;;5053535;28;20029;-72
2021/03/15 00:17:43;;;;;;;11.07;3.45;;;16.50;99.90;;;;;;5053840;28;20079;-74
2021/03/15 00:20:11;;;;;;;9.40;2.80;;;16.50;99.90;;;;;;5053323;28;20468;-74
2021/03/15 00:22:37;;;;;;;10.77;2.97;;;16.40;99.90;;;;;;5053648;28;20078;-79
2021/03/15 00:25:04;;;;;;;8.70;2.92;;;16.40;99.90;;;;;;5053432;28;20064;-77
2021/03/15 00:27:30;;;;;;;8.50;2.80;;;16.40;99.90;;;;;;5053606;28;20056;-72
2021/03/15 00:29:55;;;;;;;9.52;2.97;;;16.40;99.90;;;;;;5053552;28;20485;-74
2021/03/15 00:32:21;;;;;;;8.50;2.67;;;16.40;99.90;;;;;;5053419;28;20163;-73
2021/03/15 00:34:47;;;;;;;10.27;2.40;;;16.40;99.90;;;;;;5053287;28;20025;-75
2021/03/15 00:37:13;;;;;;;8.98;2.67;;;16.30;99.90;;;;;;5053580;28;20037;-77
2021/03/15 00:39:39;;;;;;;7.38;2.42;;;16.30;99.90;;;;;;5051687;28;20500;-76
2021/03/15 00:42:06;;;;;;;10.52;3.13;;;16.30;99.90;;;;;;5053318;28;20091;-75
2021/03/15 00:44:32;;;;;;;7.82;2.70;;;16.30;99.90;;;;;;5053030;28;20469;-76
2021/03/15 00:46:58;;;;;;;9.75;2.60;;;16.30;99.90;;;;;;5053317;28;20044;-76
2021/03/15 00:49:23;;;;;;;10.27;2.67;;;16.30;99.90;;;;;;5052839;28;20021;-77
2021/03/15 00:51:49;;;;;;;10.88;3.33;;;16.20;99.90;;;;;;5053186;28;20530;-77
2021/03/15 00:54:15;;;;;;;10.45;2.55;;;16.20;99.90;;;;;;5052778;28;20363;-77
2021/03/15 00:56:40;;;;;;;7.18;2.60;;;16.20;99.90;;;;;;5052911;28;20388;-73
2021/03/15 00:59:06;;;;;;;8.43;2.67;;;16.20;99.90;;;;;;5053159;28;20036;-74
2021/03/15 01:01:31;;;;;;;9.52;2.70;;;16.20;99.90;;;;;;5052812;28;20020;-75
2021/03/15 01:03:57;;;;;;;9.32;2.90;;;16.20;99.90;;;;;;5052841;28;20029;-76
2021/03/15 01:06:23;;;;;;;7.45;2.70;;;16.20;99.90;;;;;;5052857;28;20052;-76
2021/03/15 01:08:48;;;;;;;6.45;2.35;;;16.20;99.90;;;;;;5052588;28;20614;-76
2021/03/15 01:11:14;;;;;;;7.05;2.42;;;16.20;99.90;;;;;;5052551;28;20032;-77
2021/03/15 01:13:40;;;;;;;9.93;2.67;;;16.10;99.90;;;;;;5052793;28;20104;-77
2021/03/15 01:16:05;;;;;;;6.75;2.13;;;16.10;99.90;;;;;;5052065;28;20116;-77
2021/03/15 01:18:32;;;;;;;6.53;2.13;;;16.10;99.90;;;;;;5052472;28;20048;-75
2021/03/15 01:20:58;;;;;;;7.85;2.38;;;16.10;99.90;;;;;;5052898;28;20100;-75
2021/03/15 01:23:23;;;;;;;8.75;2.67;;;16.10;99.90;;;;;;5051823;28;20036;-75
2021/03/15 01:25:49;;;;;;;7.63;2.10;;;16.10;99.90;;;;;;5052263;28;20512;-76
2021/03/15 01:28:17;;;;;;;7.45;2.40;;;16.10;99.90;;;;;;5052521;28;20037;-76
2021/03/15 01:30:44;;;;;;;8.18;2.17;;;16.10;99.90;;;;;;5052042;28;20029;-76
2021/03/15 01:33:10;;;;;;;8.75;2.45;;;16.10;99.90;;;;;;5052226;28;20032;-74
2021/03/15 01:35:35;;;;;;;5.68;2.08;;;16.10;99.90;;;;;;5052403;28;20025;-75
2021/03/15 01:38:03;;;;;;;10.10;2.40;;;16.10;99.90;;;;;;5052401;28;20029;-75
2021/03/15 01:40:28;;;;;;;8.05;2.28;;;16.10;99.90;;;;;;5052006;28;20021;-75
2021/03/15 01:42:55;;;;;;;6.10;2.20;;;16.10;99.90;;;;;;5052198;28;20025;-74
2021/03/15 01:45:21;;;;;;;12.63;2.90;;;16.10;99.90;;;;;;5052139;28;20029;-75
2021/03/15 01:47:47;;;;;;;6.18;2.28;;;16.10;99.90;;;;;;5052139;28;20033;-76
2021/03/15 01:50:16;;;;;;;7.07;2.20;;;16.20;99.90;;;;;;5051751;28;20032;-76
2021/03/15 01:52:43;;;;;;;8.35;2.30;;;16.10;99.90;;;;;;5052180;28;20024;-72
2021/03/15 01:55:10;;;;;;;9.18;2.00;;;16.20;99.90;;;;;;5051552;28;20063;-75
2021/03/15 01:57:37;;;;;;;8.55;2.30;;;16.20;99.90;;;;;;5051749;28;20036;-74
2021/03/15 02:00:08;;;;;;;6.38;2.00;;;16.20;99.90;;;;;;5052227;28;20024;-74
2021/03/15 02:02:36;;;;;;;11.57;2.05;;;16.10;99.90;;;;;;5051494;28;20415;-73
2021/03/15 02:05:03;;;;;;;7.65;2.20;;;16.10;99.90;;;;;;5052433;28;20029;-72
2021/03/15 02:07:29;;;;;;;7.50;2.22;;;16.10;99.90;;;;;;5052182;28;20416;-75
2021/03/15 02:09:54;;;;;;;7.07;1.85;;;16.10;99.90;;;;;;5051115;28;20009;-73
2021/03/15 02:12:57;;;;;;;8.48;2.05;;;16.10;99.90;;;;;;5051818;28;20029;-73
2021/03/15 02:15:25;;;;;;;7.68;2.33;;;16.10;99.90;;;;;;5050226;28;20039;-75
2021/03/15 02:17:54;;;;;;;8.60;2.15;;;16.10;99.90;;;;;;5051709;28;20037;-73
2021/03/15 02:20:45;;;;;;;9.27;2.10;;;16.10;99.90;;;;;;5050776;28;20028;-73
2021/03/15 02:23:38;;;;;;;5.07;2.20;;;16.10;99.90;;;;;;5035006;28;20049;-75
2021/03/15 02:26:36;;;;;;;9.13;2.38;;;16.10;99.90;;;;;;5044689;28;20029;-73
2021/03/15 02:29:39;;;;;;;7.53;2.28;;;16.10;99.90;;;;;;5018224;28;20037;-74
2021/03/15 02:32:20;;;;;;;4.65;1.98;;;16.10;99.90;;;;;;5055647;28;20522;-75
2021/03/15 02:34:57;;;;;;;6.40;2.08;;;16.10;99.90;;;;;;5034530;28;20087;-74
2021/03/15 02:37:29;;;;;;;6.78;1.98;;;16.10;99.90;;;;;;5051195;28;20041;-75
2021/03/15 02:39:59;;;;;;;7.20;2.42;;;16.10;99.90;;;;;;5054604;28;20393;-74
2021/03/15 02:42:25;;;;;;;6.93;1.90;;;16.10;99.90;;;;;;5054765;28;20032;-74
2021/03/15 02:44:53;;;;;;;6.05;1.98;;;16.10;99.90;;;;;;5055681;28;20078;-74
2021/03/15 02:47:23;;;;;;;4.53;1.90;;;16.10;99.90;;;;;;5055567;28;20025;-74
2021/03/15 02:49:53;;;;;;;6.20;2.00;;;16.10;99.90;;;;;;5054773;28;20025;-74
2021/03/15 02:52:21;;;;;;;8.88;2.03;;;16.10;99.90;;;;;;5055516;28;20037;-74
2021/03/15 02:54:48;;;;;;;6.05;1.92;;;16.00;99.90;;;;;;5054630;28;20028;-74
2021/03/15 02:57:19;;;;;;;6.03;1.90;;;16.10;99.90;;;;;;5055264;28;20060;-73
2021/03/15 02:59:47;;;;;;;5.78;1.95;;;16.00;99.90;;;;;;5055191;28;20017;-74
2021/03/15 03:02:15;;;;;;;6.50;2.15;;;16.10;99.90;;;;;;5055008;28;20097;-74
2021/03/15 03:04:46;;;;;;;7.47;1.65;;;16.10;99.90;;;;;;5054968;28;20048;-73
2021/03/15 03:07:12;;;;;;;5.07;1.83;;;16.10;99.90;;;;;;5054959;28;20412;-75
2021/03/15 03:09:39;;;;;;;4.10;1.67;;;16.10;99.90;;;;;;5054586;28;20029;-75
2021/03/15 03:12:06;;;;;;;6.35;2.22;;;16.10;99.90;;;;;;5054981;28;20025;-75
2021/03/15 03:14:34;;;;;;;6.07;1.70;;;16.10;99.90;;;;;;5055018;28;20036;-75
2021/03/15 03:17:01;;;;;;;7.13;2.33;;;16.10;99.90;;;;;;5054871;28;20168;-76
2021/03/15 03:19:28;;;;;;;4.30;1.65;;;16.10;99.90;;;;;;5054941;28;20100;-76
2021/03/15 03:21:56;;;;;;;6.05;1.90;;;16.10;99.90;;;;;;5054853;28;20104;-76
2021/03/15 03:24:23;;;;;;;5.15;1.80;;;16.10;99.90;;;;;;5054251;28;20028;-74
2021/03/15 03:26:51;;;;;;;4.00;1.75;;;16.10;99.90;;;;;;5053456;28;20430;-74
2021/03/15 03:29:18;;;;;;;5.05;1.98;;;16.10;99.90;;;;;;5054673;28;20511;-75
2021/03/15 03:31:46;;;;;;;6.03;1.80;;;16.10;99.90;;;;;;5054546;28;20072;-74
2021/03/15 03:34:12;;;;;;;4.05;1.90;;;16.10;99.90;;;;;;5054491;28;20079;-74
2021/03/15 03:36:37;;;;;;;6.13;1.90;;;16.10;99.90;;;;;;5054019;28;20373;-74
2021/03/15 03:39:06;;;;;;;4.45;1.75;;;16.10;99.90;;;;;;5054540;28;20025;-74
2021/03/15 03:41:32;;;;;;;6.30;1.77;;;16.10;99.90;;;;;;5054139;28;20037;-74
2021/03/15 03:43:57;;;;;;;4.60;1.67;;;16.10;99.90;;;;;;5054092;28;20036;-74
2021/03/15 03:46:23;;;;;;;6.30;1.90;;;16.10;99.90;;;;;;5054453;28;20546;-73
2021/03/15 03:48:49;;;;;;;9.52;1.80;;;16.10;99.90;;;;;;5054079;28;20036;-74
2021/03/15 03:51:19;;;;;;;11.23;1.88;;;16.10;99.90;;;;;;5054447;28;20040;-73
2021/03/15 03:53:53;;;;;;;6.75;2.28;;;16.10;99.90;;;;;;5054043;28;20396;-73
2021/03/15 03:56:24;;;;;;;5.88;1.75;;;16.10;99.90;;;;;;5053490;28;20041;-72
2021/03/15 03:58:54;;;;;;;6.35;1.80;;;16.10;99.90;;;;;;5054233;28;20587;-73
2021/03/15 04:01:36;;;;;;;7.25;2.47;;;16.10;99.90;;;;;;5053700;28;20043;-74
2021/03/15 04:04:04;;;;;;;5.03;1.70;;;16.10;99.90;;;;;;5054037;28;20533;-74
2021/03/15 04:06:31;;;;;;;5.15;1.60;;;16.10;99.90;;;;;;5053528;28;20040;-74
2021/03/15 04:09:01;;;;;;;5.40;1.80;;;16.10;99.90;;;;;;5053653;28;20108;-74
2021/03/15 04:11:33;;;;;;;5.60;1.70;;;16.10;99.90;;;;;;5053671;28;20033;-74
2021/03/15 04:13:59;;;;;;;3.97;1.55;;;16.10;99.90;;;;;;5053921;28;20595;-74
2021/03/15 04:16:30;;;;;;;5.43;1.30;;;16.10;99.90;;;;;;5052256;28;20094;-74
2021/03/15 04:18:58;;;;;;;5.47;1.92;;;16.10;99.90;;;;;;5053646;28;20020;-72
2021/03/15 04:21:26;;;;;;;4.45;1.58;;;16.10;99.90;;;;;;5053734;28;20374;-73
2021/03/15 04:23:55;;;;;;;5.07;1.40;;;16.10;99.90;;;;;;5053581;28;20100;-73
2021/03/15 04:26:22;;;;;;;4.22;1.48;;;16.10;99.90;;;;;;5053102;28;20029;-73
2021/03/15 04:28:50;;;;;;;3.30;1.50;;;16.10;99.90;;;;;;5053696;28;20025;-75
2021/03/15 04:31:16;;;;;;;3.45;1.60;;;16.10;99.90;;;;;;5053155;28;20509;-72
2021/03/15 04:33:44;;;;;;;6.75;1.60;;;16.10;99.90;;;;;;5053668;28;20021;-74
2021/03/15 04:36:13;;;;;;;4.50;1.95;;;16.10;99.90;;;;;;5053686;28;20037;-74
2021/03/15 04:38:40;;;;;;;5.35;1.50;;;16.10;99.90;;;;;;5053462;28;20025;-73
2021/03/15 04:41:06;;;;;;;3.28;1.40;;;16.10;99.90;;;;;;5051779;28;20086;-73
2021/03/15 04:43:32;;;;;;;4.00;1.45;;;16.10;99.90;;;;;;5053322;28;20116;-73
2021/03/15 04:45:58;;;;;;;4.10;1.67;;;16.10;99.90;;;;;;5052971;28;20028;-73
2021/03/15 04:48:27;;;;;;;4.65;1.67;;;16.10;99.90;;;;;;5052732;28;20037;-71
2021/03/15 04:51:05;;;;;;;6.90;1.83;;;16.10;99.90;;;;;;5052466;28;20558;-72
2021/03/15 04:53:33;;;;;;;5.57;1.45;;;16.10;99.90;;;;;;5053191;28;20017;-72
2021/03/15 04:56:08;;;;;;;4.18;1.42;;;16.10;99.90;;;;;;5053044;28;20033;-72
2021/03/15 04:58:36;;;;;;;4.97;1.60;;;16.10;99.90;;;;;;5050958;28;20033;-72
2021/03/15 05:01:03;;;;;;;5.72;1.52;;;16.10;99.90;;;;;;5052723;28;20778;-72
2021/03/15 05:03:31;;;;;;;5.57;1.80;;;16.20;99.90;;;;;;5053051;28;20083;-72
2021/03/15 05:05:57;;;;;;;5.20;1.70;;;16.10;99.90;;;;;;5052973;28;20064;-72
2021/03/15 05:08:27;;;;;;;5.60;1.80;;;16.10;99.90;;;;;;5052944;28;20076;-72
2021/03/15 05:10:54;;;;;;;3.47;1.65;;;16.10;99.90;;;;;;5052602;28;20017;-72
2021/03/15 05:13:20;;;;;;;3.42;1.38;;;16.10;99.90;;;;;;5052431;28;20029;-71
2021/03/15 05:15:47;;;;;;;3.97;1.30;;;16.10;99.90;;;;;;5052410;28;20037;-74
2021/03/15 05:18:14;;;;;;;6.07;1.77;;;16.10;99.90;;;;;;5052603;28;20507;-73
2021/03/15 05:20:41;;;;;;;3.90;1.40;;;16.10;99.90;;;;;;5052961;28;20093;-72
2021/03/15 05:23:08;;;;;;;3.40;1.55;;;16.10;99.90;;;;;;5052370;28;20070;-72
2021/03/15 05:25:36;;;;;;;4.40;1.55;;;16.10;99.90;;;;;;5052479;28;20028;-73
2021/03/15 05:28:07;;;;;;;6.00;1.45;;;16.10;99.90;;;;;;5052072;28;20032;-73
2021/03/15 05:30:36;;;;;;;4.15;1.88;;;16.20;99.90;;;;;;5052288;28;20082;-73
2021/03/15 05:33:04;;;;;;;3.30;1.50;;;16.10;99.90;;;;;;5052013;28;20433;-74
2021/03/15 05:35:30;;;;;;;4.97;1.70;;;16.10;99.90;;;;;;5052436;28;20025;-72
2021/03/15 05:37:57;;;;;;;4.93;1.65;;;16.10;99.90;;;;;;5052328;28;20036;-72
2021/03/15 05:40:25;;;;;;;4.88;1.40;;;16.10;99.90;;;;;;5051973;28;20373;-73
2021/03/15 05:43:09;;;;;;;5.72;1.48;;;16.10;99.90;;;;;;5052257;28;20044;-71
2021/03/15 05:45:49;;;;;;;5.95;1.65;;;16.10;99.90;;;;;;5052065;28;20112;-71
2021/03/15 05:48:46;;;;;;;3.63;1.60;;;16.10;99.90;;;;;;5051750;28;20029;-72
2021/03/15 05:51:50;;;;;;;3.95;1.80;;;16.20;99.90;;;;;;5052289;28;20053;-71
2021/03/15 05:54:52;;;;;;;4.53;1.73;;;16.10;99.90;;;;;;5052094;28;20083;-72
2021/03/15 05:57:40;;;;;;;3.63;1.52;;;16.10;99.90;;;;;;5051366;28;20039;-72
2021/03/15 06:00:08;;;;;;;5.22;1.50;;;16.10;99.90;;;;;;5051579;28;20520;-70
2021/03/15 06:02:42;;;;;;;4.53;1.35;;;16.20;99.90;;;;;;5050784;28;20025;-71
2021/03/15 06:05:16;;;;;;;4.78;1.40;;;16.20;99.90;;;;;;5052084;28;20056;-73
2021/03/15 06:07:46;;;;;;;4.70;1.60;;;16.20;99.90;;;;;;5051916;28;20465;-72
2021/03/15 06:10:29;;;;;;;5.53;1.35;;;16.20;99.90;;;;;;5052509;28;20392;-73
2021/03/15 06:13:07;;;;;;;6.90;1.73;;;16.20;99.90;;;;;;5052009;28;20491;-72
2021/03/15 06:15:42;;;;;;;5.70;1.90;;;16.20;99.90;;;;;;5051097;28;20079;-71
2021/03/15 06:18:10;;;;;;;4.10;1.65;;;16.20;99.90;;;;;;5051796;28;20036;-71
2021/03/15 06:20:38;;;;;;;3.97;1.48;;;16.10;99.90;;;;;;5050254;28;20020;-72
2021/03/15 06:23:04;;;;;;;9.23;1.60;;;16.10;99.90;;;;;;5051854;28;20025;-73
2021/03/15 06:25:31;;;;;;;6.30;1.85;;;16.10;99.90;;;;;;5051438;28;20021;-72
2021/03/15 06:27:57;;;;;;;4.70;1.40;;;16.10;99.90;;;;;;5051770;28;20021;-73
2021/03/15 06:30:26;;;;;;;5.53;1.60;;;16.10;99.90;;;;;;5051095;28;20075;-74
2021/03/15 06:32:57;;;;;;;4.60;1.70;;;16.20;99.90;;;;;;5051773;28;20096;-71
2021/03/15 06:35:28;;;;;;;4.70;1.60;;;16.20;99.90;;;;;;5051740;28;20116;-72
2021/03/15 06:37:55;;;;;;;4.88;1.58;;;16.20;99.90;;;;;;5051673;28;20108;-72
2021/03/15 06:40:22;;;;;;;6.03;1.90;;;16.20;99.90;;;;;;5050633;28;20022;-71
2021/03/15 06:42:50;;;;;;;6.03;1.90;;;16.20;99.90;;;;;;5050666;28;20354;-67
2021/03/15 06:45:16;;;;;;;7.18;1.88;;;16.20;99.90;;;;;;5050260;28;20040;-70
2021/03/15 06:47:43;;;;;;;6.07;1.90;;;16.20;99.90;;;;;;5051482;28;20047;-71
2021/03/15 06:50:13;;;;;;;4.80;1.75;;;16.20;99.90;;;;;;5051681;28;20051;-79
2021/03/15 06:52:54;;;;;;;13.23;1.45;;;16.20;99.90;;;;;;5051752;28;20025;-73
2021/03/15 06:55:23;;;;;;;12.57;3.10;;;16.10;99.90;;;;;;5051514;28;20035;-70
2021/03/15 06:57:49;;;;;;;8.88;2.75;;;15.90;99.90;;;;;;5051524;28;20025;-67
2021/03/15 07:00:20;;;;;;;8.48;2.75;;;15.60;99.90;;;;;;5051832;28;20032;-75
2021/03/15 07:03:03;;;;;;;9.30;2.58;;;15.50;99.90;;;;;;5051751;28;20390;-74
2021/03/15 07:05:32;;;;;;;8.68;2.50;;;15.40;99.90;;;;;;5051499;28;20021;-77
2021/03/15 07:08:00;;;;;;;9.23;2.80;;;15.30;99.90;;;;;;5049689;28;20437;-74
2021/03/15 07:10:33;;;;;;;14.07;2.95;;;15.20;99.90;;;;;;5038456;28;20032;-78
2021/03/15 07:13:12;;;;;;;9.85;2.65;;;14.90;99.90;;;;;;5051664;28;20108;-75
2021/03/15 07:15:40;;;;;;;8.73;2.55;;;14.70;99.90;;;;;;5054766;28;20036;-76
2021/03/15 07:18:23;;;;;;;6.03;2.33;;;14.50;99.90;;;;;;5055153;28;20357;-78
2021/03/15 07:20:50;;;;;;;10.02;2.50;;;14.40;99.90;;;;;;5055461;28;20025;-77
2021/03/15 07:23:16;;;;;;;8.00;2.33;;;14.30;99.90;;;;;;5055415;28;20029;-76
2021/03/15 07:25:42;;;;;;;9.45;2.85;;;14.30;99.90;;;;;;5054936;28;20025;-74
2021/03/15 07:28:08;;;;;;;5.82;2.60;;;14.20;99.90;;;;;;5054907;28;20021;-74
2021/03/15 07:30:43;;;;;;;11.30;2.20;;;14.40;99.90;;;;;;5054343;28;20028;-75
2021/03/15 07:33:11;;;;;;;9.02;2.22;;;14.70;99.90;;;;;;5055036;28;20100;-75
2021/03/15 07:35:38;;;;;;;3.22;1.33;;;15.00;99.90;;;;;;5054738;28;20090;-75
2021/03/15 07:38:05;;;;;;;4.28;1.63;;;15.20;99.90;;;;;;5055414;28;20060;-72
2021/03/15 07:40:37;;;;;;;6.90;1.95;;;15.40;99.90;;;;;;5053946;28;20021;-76
2021/03/15 07:43:05;;;;;;;3.22;1.23;;;15.60;99.90;;;;;;5054719;28;20021;-73
2021/03/15 07:45:43;;;;;;;5.35;1.70;;;15.70;99.90;;;;;;5054233;28;20381;-69
2021/03/15 07:48:13;;;;;;;9.68;2.47;;;15.80;99.90;;;;;;5053943;28;20542;-75
2021/03/15 07:50:41;;;;;;;8.65;2.05;;;15.20;99.90;;;;;;5053826;28;20135;-73
2021/03/15 07:53:07;;;;;;;7.75;2.40;;;15.00;99.90;;;;;;5047271;28;20033;-73
2021/03/15 07:55:35;;;;;;;4.57;2.00;;;14.70;99.90;;;;;;5054073;28;20029;-72
2021/03/15 07:58:00;;;;;;;9.20;2.38;;;14.90;99.90;;;;;;5054372;28;20041;-72
2021/03/15 08:00:26;;;;;;;8.07;2.35;;;14.90;99.90;;;;;;5053984;28;20021;-71
2021/03/15 08:02:52;;;;;;;10.07;1.92;;;15.00;99.90;;;;;;5054295;28;20044;-68
2021/03/15 08:05:18;;;;;;;7.03;1.60;;;15.40;99.90;;;;;;5054562;28;20013;-74
2021/03/15 08:07:44;;;;;;;8.52;1.70;;;15.90;99.90;;;;;;5053460;28;20028;-72
2021/03/15 08:10:10;;;;;;;10.45;1.88;;;16.50;99.90;;;;;;5052784;28;20021;-71
2021/03/15 08:12:37;;;;;;;6.25;1.60;;;16.80;99.90;;;;;;5053588;28;20115;-70
2021/03/15 08:15:09;;;;;;;6.10;1.30;;;17.00;99.90;;;;;;5053113;28;20024;-71
2021/03/15 08:17:37;;;;;;;5.20;1.60;;;17.10;99.90;;;;;;5054092;28;20029;-71
2021/03/15 08:20:06;;;;;;;5.78;1.30;;;17.20;99.90;;;;;;5054000;28;20021;-68
2021/03/15 08:22:36;;;;;;;3.00;0.98;;;17.20;99.90;;;;;;5053273;28;20162;-72
2021/03/15 08:25:02;;;;;;;4.72;1.00;;;17.20;99.90;;;;;;5052771;28;20366;-71
2021/03/15 08:27:42;;;;;;;3.33;1.20;;;17.20;99.90;;;;;;5053606;28;20029;-71
2021/03/15 08:30:15;;;;;;;4.68;1.33;;;17.10;99.90;;;;;;5052303;28;20029;-68
2021/03/15 08:32:42;;;;;;;6.22;1.33;;;17.10;99.90;;;;;;5053278;28;20155;-70
2021/03/15 08:35:09;;;;;;;4.03;1.27;;;17.10;99.90;;;;;;5053815;28;20036;-71
2021/03/15 08:37:57;;;;;;;2.83;1.20;;;17.00;99.90;;;;;;5053557;28;20112;-73
2021/03/15 08:40:41;;;;;;;4.07;1.42;;;17.00;99.90;;;;;;5053299;28;20025;-70
2021/03/15 08:43:18;;;;;;;5.00;1.52;;;17.00;99.90;;;;;;5053656;28;20047;-69
2021/03/15 08:46:01;;;;;;;5.15;1.60;;;17.00;99.90;;;;;;5052994;28;20378;-70
2021/03/15 08:48:33;;;;;;;3.67;1.80;;;17.10;99.90;;;;;;5053267;28;20055;-72
2021/03/15 08:51:00;;;;;;;3.13;1.70;;;17.10;99.90;;;;;;5051380;28;20033;-71
2021/03/15 08:53:38;;;;;;;3.92;1.65;;;17.10;99.90;;;;;;5052485;28;20045;-71
2021/03/15 08:56:13;;;;;;;3.65;1.95;;;17.10;99.90;;;;;;5052989;28;20555;-73
2021/03/15 08:58:40;;;;;;;4.28;1.52;;;17.20;99.90;;;;;;5051930;28;20025;-72
2021/03/15 09:01:08;;;;;;;2.65;1.08;;;17.10;99.90;;;;;;5053252;28;20029;-71
2021/03/15 09:03:53;;;;;;;4.90;1.48;;;17.90;99.90;;;;;;5052717;28;20473;-72
2021/03/15 09:06:31;;;;;;;5.57;1.20;;;19.40;99.90;;;;;;5053290;28;20029;-69
2021/03/15 09:09:11;;;;;;;3.33;1.15;;;20.50;99.30;;;;;;5052935;28;20120;-69
2021/03/15 09:11:36;;;;;;;3.70;1.10;;;21.30;98.50;;;;;;5053043;28;20545;-68
2021/03/15 09:14:17;;;;;;;3.25;1.20;;;21.90;97.90;;;;;;5052960;28;20025;-72
2021/03/15 09:17:09;;;;;;;3.78;1.15;;;22.40;97.50;;;;;;5051197;28;20396;-74
2021/03/15 09:19:43;;;;;;;3.53;1.20;;;22.80;97.20;;;;;;5045568;28;20045;-73
2021/03/15 09:22:25;;;;;;;3.53;1.13;;;23.10;97.00;;;;;;5052995;28;20025;-72
2021/03/15 09:25:20;;;;;;;3.80;1.10;;;23.50;96.80;;;;;;5052784;28;20021;-74
2021/03/15 09:27:50;;;;;;;2.33;0.88;;;23.90;96.60;;;;;;5047602;28;20036;-73
2021/03/15 09:30:29;;;;;;;2.10;0.90;;;24.10;96.30;;;;;;5052732;28;20017;-76
2021/03/15 09:32:56;;;;;;;7.78;1.30;;;24.30;96.20;;;;;;5052690;28;20029;-72
2021/03/15 09:35:24;;;;;;;1.70;0.80;;;24.10;96.40;;;;;;5051842;28;20112;-75
2021/03/15 09:38:13;;;;;;;3.30;1.00;;;23.10;98.10;;;;;;5052317;28;20437;-74
2021/03/15 09:40:38;;;;;;;2.85;0.88;;;22.30;99.90;;;;;;5051554;28;20033;-74
2021/03/15 09:43:04;;;;;;;1.98;1.00;;;21.70;99.90;;;;;;5052120;28;20472;-73
2021/03/15 09:45:34;;;;;;;3.60;1.05;;;21.40;99.90;;;;;;5052390;28;20029;-74
2021/03/15 09:48:02;;;;;;;3.95;1.30;;;21.10;99.90;;;;;;5052323;28;20025;-75
2021/03/15 09:50:30;;;;;;;3.35;0.80;;;21.00;99.90;;;;;;5052537;28;20431;-73
2021/03/15 09:53:16;;;;;;;2.47;1.08;;;20.90;99.90;;;;;;5052422;28;20033;-72
2021/03/15 09:55:42;;;;;;;3.05;0.98;;;20.80;99.90;;;;;;5051889;28;20427;-75
2021/03/15 09:58:10;;;;;;;2.75;0.90;;;20.70;99.90;;;;;;5052165;28;20032;-76
2021/03/15 10:00:36;;;;;;;3.75;0.95;;;20.60;99.90;;;;;;5052078;28;20126;-76
2021/03/15 10:03:02;;;;;;;1.92;0.90;;;20.50;99.90;;;;;;5052055;28;20049;-76
2021/03/15 10:05:28;;;;;;;3.22;0.90;;;20.50;99.90;;;;;;5052342;28;20033;-70
2021/03/15 10:07:54;;;;;;;2.90;0.73;;;20.50;99.90;;;;;;5052719;28;20020;-73
2021/03/15 10:10:22;;;;;;;3.45;0.85;;;20.50;99.90;;;;;;5051551;28;20085;-76
2021/03/15 10:12:49;;;;;;;3.03;0.90;;;20.40;99.90;;;;;;5051978;28;20021;-75
2021/03/15 10:15:19;;;;;;;2.67;1.08;;;20.40;99.90;;;;;;5051294;28;20036;-76
2021/03/15 10:17:45;;;;;;;3.22;0.93;;;20.50;99.90;;;;;;5050906;28;20099;-75
2021/03/15 10:20:24;;;;;;;2.45;0.90;;;20.50;99.90;;;;;;5050749;28;20477;-75
2021/03/15 10:22:49;;;;;;;2.58;0.90;;;20.50;99.90;;;;;;5052030;28;20102;-77
2021/03/15 10:25:15;;;;;;;2.63;0.70;;;20.50;99.90;;;;;;5049952;28;20033;-76
2021/03/15 10:27:54;;;;;;;3.25;0.85;;;20.50;99.90;;;;;;5051975;28;20039;-77
2021/03/15 10:30:25;;;;;;;1.83;0.70;;;20.50;99.90;;;;;;5051882;28;20024;-79
2021/03/15 10:32:51;;;;;;;2.75;0.75;;;20.50;99.90;;;;;;5051565;28;20108;-77
2021/03/15 10:35:19;;;;;;;2.20;0.70;;;20.50;99.90;;;;;;5051702;28;20450;-77
2021/03/15 10:37:47;;;;;;;2.25;0.77;;;20.50;99.90;;;;;;5052032;28;20115;-72
2021/03/15 10:40:13;;;;;;;1.67;0.77;;;20.50;99.90;;;;;;5051302;28;20032;-76
2021/03/15 10:42:39;;;;;;;2.80;1.00;;;20.50;99.90;;;;;;5051357;28;20115;-78
2021/03/15 10:45:11;;;;;;;3.03;1.10;;;20.50;99.90;;;;;;5051986;28;20124;-83
2021/03/15 10:47:38;;;;;;;2.17;0.93;;;20.60;99.90;;;;;;5051881;28;20037;-78
2021/03/15 10:50:23;;;;;;;1.60;0.80;;;20.60;99.90;;;;;;5055855;28;20033;-77
2021/03/15 10:52:48;;;;;;;3.90;0.73;;;20.60;99.90;;;;;;5055108;28;20024;-78
2021/03/15 10:55:18;;;;;;;4.20;0.63;;;20.60;99.90;;;;;;5054840;28;20036;-73
2021/03/15 10:58:04;;;;;;;1.92;1.08;;;20.60;99.90;;;;;;5055031;28;20396;-76
2021/03/15 11:00:33;;;;;;;2.13;0.65;;;20.70;99.90;;;;;;5055655;28;20116;-72
2021/03/15 11:02:59;;;;;;;2.72;0.80;;;20.60;99.90;;;;;;5055701;28;20025;-75
2021/03/15 11:05:25;;;;;;;2.25;0.80;;;20.50;99.90;;;;;;5055415;28;20384;-72
2021/03/15 11:07:52;;;;;;;3.22;1.00;;;20.50;99.90;;;;;;5054840;28;20033;-74
2021/03/15 11:10:30;;;;;;;3.95;0.75;;;20.30;99.90;;;;;;5055489;28;20354;-77
2021/03/15 11:12:57;;;;;;;3.88;0.98;;;20.30;99.90;;;;;;5055684;28;20029;-78
2021/03/15 11:15:32;;;;;;;3.45;0.60;;;20.40;99.90;;;;;;5054774;28;20025;-75
2021/03/15 11:17:59;;;;;;;3.10;0.90;;;20.50;99.90;;;;;;5055328;28;20028;-70
2021/03/15 11:20:48;;;;;;;3.03;0.60;;;20.40;99.90;;;;;;5055125;28;20029;-72
2021/03/15 11:23:25;;;;;;;1.65;0.70;;;20.40;99.90;;;;;;5055079;28;20035;-76
2021/03/15 11:25:58;;;;;;;1.92;0.80;;;20.50;99.90;;;;;;5054976;28;20025;-75
2021/03/15 11:28:30;;;;;;;2.78;0.75;;;20.50;99.90;;;;;;5054523;28;20037;-72
2021/03/15 11:30:59;;;;;;;2.55;0.80;;;20.40;99.90;;;;;;5054993;28;20469;-72
2021/03/15 11:33:25;;;;;;;2.60;0.73;;;20.40;99.90;;;;;;5055056;28;20428;-72
2021/03/15 11:35:51;;;;;;;1.73;0.70;;;20.40;99.90;;;;;;5054747;28;20017;-70
2021/03/15 11:38:22;;;;;;;2.50;0.70;;;20.40;99.90;;;;;;5054662;28;20094;-74
2021/03/15 11:40:48;;;;;;;2.75;0.70;;;20.40;99.90;;;;;;5054718;28;20032;-71
2021/03/15 11:43:14;;;;;;;1.40;0.63;;;20.40;99.90;;;;;;5054705;28;20029;-71
2021/03/15 11:45:40;;;;;;;2.45;0.70;;;20.40;99.90;;;;;;5054465;28;20075;-75
2021/03/15 11:48:07;;;;;;;1.45;0.57;;;20.40;99.90;;;;;;5054277;28;20036;-75
2021/03/15 11:50:35;;;;;;;1.23;0.52;;;20.40;99.90;;;;;;5053657;28;20033;-74
2021/03/15 11:53:02;;;;;;;1.90;0.73;;;20.30;99.90;;;;;;5054671;28;20386;-73
2021/03/15 11:55:28;;;;;;;2.80;0.65;;;20.30;99.90;;;;;;5054294;28;20465;-71
2021/03/15 11:57:54;;;;;;;2.67;0.70;;;20.20;99.90;;;;;;5054154;28;20044;-71
2021/03/15 12:00:21;;;;;;;2.80;0.73;;;20.20;99.90;;;;;;5052897;28;20110;-77
2021/03/15 12:02:48;;;;;;;2.67;0.70;;;20.20;99.90;;;;;;5052388;28;20029;-76
2021/03/15 12:05:15;;;;;;;2.58;0.73;;;20.20;99.90;;;;;;5053285;28;20455;-76
2021/03/15 12:07:41;;;;;;;1.83;0.70;;;20.20;99.90;;;;;;5049521;28;20554;-75
2021/03/15 12:10:10;;;;;;;3.05;0.70;;;20.20;99.90;;;;;;5049799;28;20033;-76
2021/03/15 12:12:36;;;;;;;2.33;0.70;;;20.30;99.90;;;;;;5049650;28;20029;-73
2021/03/15 12:15:05;;;;;;;3.15;0.93;;;20.40;99.90;;;;;;5053143;28;20021;-76
2021/03/15 12:17:32;;;;;;;1.13;0.50;;;20.40;99.90;;;;;;5053003;28;20033;-76
2021/03/15 12:20:02;;;;;;;1.40;0.60;;;20.40;99.90;;;;;;5051999;28;20029;-76
2021/03/15 12:22:28;;;;;;;2.13;0.60;;;20.50;99.90;;;;;;5052696;28;20028;-75
2021/03/15 12:24:54;;;;;;;2.42;0.82;;;20.40;99.90;;;;;;5052613;28;20021;-69
2021/03/15 12:27:20;;;;;;;2.45;0.80;;;20.40;99.90;;;;;;5052715;28;20024;-74
2021/03/15 12:29:45;;;;;;;2.53;0.80;;;20.40;99.90;;;;;;5052543;28;20540;-75
2021/03/15 12:32:12;;;;;;;1.63;0.70;;;20.40;99.90;;;;;;5051987;28;20029;-76
2021/03/15 12:34:37;;;;;;;2.50;0.73;;;20.40;99.90;;;;;;5052620;28;20551;-76
2021/03/15 12:37:03;;;;;;;1.80;0.80;;;20.50;99.90;;;;;;5053270;28;20045;-75
2021/03/15 12:39:30;;;;;;;2.78;0.70;;;20.50;99.90;;;;;;5052893;28;20047;-75
2021/03/15 12:41:56;;;;;;;1.55;0.63;;;20.50;99.90;;;;;;5052225;28;20082;-75
2021/03/15 12:44:22;;;;;;;2.03;0.52;;;20.50;99.90;;;;;;5053367;28;20485;-74
2021/03/15 12:46:48;;;;;;;2.25;0.80;;;20.50;99.90;;;;;;5053535;28;20043;-76
2021/03/15 12:49:13;;;;;;;1.98;0.70;;;20.50;99.90;;;;;;5053383;28;20059;-73
2021/03/15 12:51:39;;;;;;;2.63;0.80;;;20.50;99.90;;;;;;5053088;28;20043;-77
2021/03/15 12:54:06;;;;;;;1.75;0.60;;;20.50;99.90;;;;;;5053630;28;20115;-72
2021/03/15 12:56:31;;;;;;;1.17;0.60;;;20.50;99.90;;;;;;5053548;28;20138;-74
2021/03/15 12:58:57;;;;;;;1.45;0.57;;;20.50;99.90;;;;;;5053180;28;20496;-74